createdAt,value
2017-12-31T00:01:34.447Z,7.82
2017-12-31T00:04:08.801Z,6.85
2017-12-31T00:06:43.341Z,6.30
2017-12-31T00:09:17.719Z,5.00
2017-12-31T00:11:52.246Z,6.12
2017-12-31T00:14:26.775Z,5.60
2017-12-31T00:17:01.992Z,4.07
2017-12-31T00:19:36.465Z,3.62
2017-12-31T00:22:12.587Z,4.87
2017-12-31T00:24:47.024Z,5.55
2017-12-31T00:27:22.142Z,4.87
2017-12-31T00:29:56.630Z,4.50
2017-12-31T00:32:31.806Z,5.10
2017-12-31T00:35:06.324Z,5.90
2017-12-31T00:37:40.820Z,5.15
2017-12-31T00:40:15.284Z,3.72
2017-12-31T00:42:49.673Z,4.70
2017-12-31T00:45:24.102Z,4.40
2017-12-31T00:47:58.666Z,3.70
2017-12-31T00:50:32.990Z,4.25
2017-12-31T00:53:07.346Z,4.85
2017-12-31T00:55:41.802Z,4.90
2017-12-31T00:58:16.208Z,4.55
2017-12-31T01:00:50.771Z,3.72
2017-12-31T01:03:25.189Z,3.05
2017-12-31T01:05:59.549Z,4.15
2017-12-31T01:08:34.082Z,2.95
2017-12-31T01:11:08.533Z,3.95
2017-12-31T01:13:43.053Z,3.53
2017-12-31T01:16:17.378Z,4.45
2017-12-31T01:18:51.894Z,4.28
2017-12-31T01:21:26.501Z,1.65
2017-12-31T01:24:01.003Z,3.40
2017-12-31T01:26:36.208Z,3.42
2017-12-31T01:29:10.562Z,3.37
2017-12-31T01:31:45.084Z,3.25
2017-12-31T01:34:19.511Z,3.33
2017-12-31T01:36:54.055Z,3.42
2017-12-31T01:39:28.413Z,2.87
2017-12-31T01:42:02.912Z,3.75
2017-12-31T01:44:37.278Z,3.42
2017-12-31T01:47:11.647Z,3.60
2017-12-31T01:49:46.146Z,2.58
2017-12-31T01:52:20.555Z,3.03
2017-12-31T01:54:55.801Z,2.90
2017-12-31T01:57:30.380Z,3.95
2017-12-31T02:00:05.611Z,3.30
2017-12-31T02:02:40.127Z,2.30
2017-12-31T02:05:14.497Z,3.45
2017-12-31T02:07:48.998Z,3.70
2017-12-31T02:10:23.549Z,3.22
2017-12-31T02:12:58.087Z,1.92
2017-12-31T02:15:32.513Z,2.15
2017-12-31T02:18:07.066Z,2.85
2017-12-31T02:20:41.623Z,3.00
2017-12-31T02:23:16.083Z,3.10
2017-12-31T02:25:50.449Z,2.42
2017-12-31T02:28:24.823Z,3.33
2017-12-31T02:30:59.342Z,1.73
2017-12-31T02:33:34.601Z,3.20
2017-12-31T02:36:09.081Z,1.95
2017-12-31T02:38:43.504Z,2.20
2017-12-31T02:41:18.032Z,4.15
2017-12-31T02:43:52.575Z,4.10
2017-12-31T02:46:27.072Z,3.50
2017-12-31T02:49:01.485Z,6.97
2017-12-31T02:51:36.021Z,3.40
2017-12-31T02:54:10.311Z,3.25
2017-12-31T02:56:44.761Z,2.25
2017-12-31T02:59:19.157Z,1.42
2017-12-31T03:01:53.565Z,4.60
2017-12-31T03:04:28.198Z,4.65
2017-12-31T03:07:02.743Z,5.80
2017-12-31T03:09:37.330Z,4.95
2017-12-31T03:12:11.807Z,2.55
2017-12-31T03:14:46.248Z,5.65
2017-12-31T03:17:20.829Z,3.75
2017-12-31T03:19:55.328Z,4.53
2017-12-31T03:22:30.548Z,3.75
2017-12-31T03:25:04.944Z,4.75
2017-12-31T03:27:39.312Z,2.70
2017-12-31T03:30:13.693Z,4.78
2017-12-31T03:32:48.152Z,6.70
2017-12-31T03:35:22.681Z,7.35
2017-12-31T03:37:57.046Z,4.53
2017-12-31T03:40:31.626Z,6.47
2017-12-31T03:43:06.131Z,4.95
2017-12-31T03:45:40.485Z,8.63
2017-12-31T03:48:15.570Z,4.70
2017-12-31T03:50:50.017Z,6.00
2017-12-31T03:53:24.462Z,6.28
2017-12-31T03:55:58.798Z,5.40
2017-12-31T03:58:33.235Z,5.53
2017-12-31T04:01:07.666Z,5.47
2017-12-31T04:03:42.144Z,5.43
2017-12-31T04:06:16.625Z,6.30
2017-12-31T04:08:50.957Z,3.92
2017-12-31T04:11:25.481Z,4.62
2017-12-31T04:13:59.882Z,6.68
2017-12-31T04:16:34.253Z,3.25
2017-12-31T04:19:08.635Z,6.40
2017-12-31T04:21:43.118Z,4.32
2017-12-31T04:24:17.501Z,4.22
2017-12-31T04:26:51.974Z,4.65
2017-12-31T04:29:27.245Z,6.20
2017-12-31T04:32:02.437Z,5.22
2017-12-31T04:34:36.867Z,6.05
2017-12-31T04:37:11.363Z,5.20
2017-12-31T04:39:45.786Z,5.80
2017-12-31T04:42:20.241Z,6.30
2017-12-31T04:44:54.652Z,4.72
2017-12-31T04:47:29.175Z,5.30
2017-12-31T04:50:03.566Z,4.87
2017-12-31T04:52:38.129Z,5.07
2017-12-31T04:55:12.693Z,6.15
2017-12-31T04:57:47.284Z,5.55
2017-12-31T05:00:22.575Z,6.07
2017-12-31T05:02:57.109Z,5.87
2017-12-31T05:05:31.534Z,5.35
2017-12-31T05:08:06.046Z,5.28
2017-12-31T05:10:40.401Z,5.82
2017-12-31T05:13:14.782Z,6.75
2017-12-31T05:15:49.929Z,6.70
2017-12-31T05:18:26.090Z,5.30
2017-12-31T05:21:00.503Z,5.30
2017-12-31T05:23:34.925Z,6.50
2017-12-31T05:26:09.279Z,6.35
2017-12-31T05:28:43.667Z,4.00
2017-12-31T05:31:18.092Z,3.50
2017-12-31T05:33:52.530Z,4.57
2017-12-31T05:36:27.930Z,3.53
2017-12-31T05:39:02.485Z,5.50
2017-12-31T05:41:37.002Z,4.62
2017-12-31T05:44:11.526Z,6.62
2017-12-31T05:46:46.765Z,4.53
2017-12-31T05:49:21.153Z,5.47
2017-12-31T05:51:55.487Z,6.28
2017-12-31T05:54:29.978Z,4.85
2017-12-31T05:57:04.505Z,5.10
2017-12-31T05:59:39.738Z,5.25
2017-12-31T06:02:14.344Z,6.03
2017-12-31T06:04:48.709Z,5.07
2017-12-31T06:07:23.111Z,4.60
2017-12-31T06:09:57.432Z,4.40
2017-12-31T06:12:31.830Z,4.37
2017-12-31T06:15:06.274Z,4.15
2017-12-31T06:17:40.811Z,5.68
2017-12-31T06:20:15.297Z,5.68
2017-12-31T06:22:49.709Z,6.55
2017-12-31T06:25:24.176Z,5.97
2017-12-31T06:27:58.676Z,3.25
2017-12-31T06:30:33.223Z,5.40
2017-12-31T06:33:07.740Z,3.75
2017-12-31T06:35:42.255Z,4.30
2017-12-31T06:38:16.659Z,3.60
2017-12-31T06:40:51.211Z,3.65
2017-12-31T06:43:25.634Z,5.72
2017-12-31T06:46:00.737Z,3.65
2017-12-31T06:48:35.891Z,4.12
2017-12-31T06:51:10.244Z,4.37
2017-12-31T06:53:44.550Z,3.35
2017-12-31T06:56:19.064Z,4.07
2017-12-31T06:58:53.479Z,4.07
2017-12-31T07:01:27.943Z,4.35
2017-12-31T07:04:03.119Z,3.97
2017-12-31T07:06:37.646Z,4.45
2017-12-31T07:09:12.055Z,5.40
2017-12-31T07:11:46.549Z,4.78
2017-12-31T07:14:21.831Z,4.43
2017-12-31T07:16:56.280Z,6.07
2017-12-31T07:19:30.655Z,3.97
2017-12-31T07:22:04.992Z,4.30
2017-12-31T07:24:39.508Z,4.20
2017-12-31T07:27:14.639Z,4.30
2017-12-31T07:29:49.180Z,5.10
2017-12-31T07:32:23.725Z,5.00
2017-12-31T07:34:58.178Z,4.10
2017-12-31T07:37:32.598Z,4.20
2017-12-31T07:40:07.135Z,6.05
2017-12-31T07:42:41.647Z,3.92
2017-12-31T07:45:16.894Z,4.03
2017-12-31T07:47:51.271Z,4.07
2017-12-31T07:50:25.853Z,5.35
2017-12-31T07:53:00.315Z,5.10
2017-12-31T07:55:34.798Z,3.65
2017-12-31T07:58:09.961Z,4.53
2017-12-31T08:00:44.493Z,4.30
2017-12-31T08:03:18.990Z,4.40
2017-12-31T08:05:53.617Z,4.07
2017-12-31T08:08:28.108Z,4.70
2017-12-31T08:11:02.687Z,4.97
2017-12-31T08:13:37.205Z,4.15
2017-12-31T08:16:11.563Z,3.85
2017-12-31T08:18:46.118Z,3.53
2017-12-31T08:21:20.503Z,5.15
2017-12-31T08:23:54.878Z,4.25
2017-12-31T08:26:30.079Z,3.70
2017-12-31T08:29:04.613Z,4.37
2017-12-31T08:31:39.145Z,6.25
2017-12-31T08:34:13.518Z,3.90
2017-12-31T08:36:47.956Z,4.37
2017-12-31T08:39:22.466Z,4.70
2017-12-31T08:41:56.997Z,5.22
2017-12-31T08:44:31.520Z,4.97
2017-12-31T08:47:06.090Z,5.60
2017-12-31T08:49:40.701Z,6.00
2017-12-31T08:52:15.894Z,5.65
2017-12-31T08:54:50.302Z,5.43
2017-12-31T08:57:24.746Z,6.35
2017-12-31T08:59:59.262Z,6.72
2017-12-31T09:02:33.772Z,7.43
2017-12-31T09:05:09.053Z,6.90
2017-12-31T09:07:43.532Z,8.70
2017-12-31T09:10:17.839Z,8.00
2017-12-31T09:12:52.179Z,8.70
2017-12-31T09:15:26.707Z,9.82
2017-12-31T09:18:01.278Z,8.38
2017-12-31T09:20:35.749Z,11.32
2017-12-31T09:23:10.255Z,6.45
2017-12-31T09:25:44.624Z,8.80
2017-12-31T09:28:19.199Z,8.30
2017-12-31T09:30:53.612Z,7.18
2017-12-31T09:33:27.965Z,8.55
2017-12-31T09:36:02.467Z,8.00
2017-12-31T09:38:37.013Z,8.05
2017-12-31T09:41:11.315Z,7.75
2017-12-31T09:43:45.857Z,9.20
2017-12-31T09:46:20.409Z,44.70
2017-12-31T09:48:54.841Z,16.48
2017-12-31T09:51:29.332Z,12.05
2017-12-31T09:54:03.801Z,9.15
2017-12-31T09:56:38.159Z,9.93
2017-12-31T09:59:12.545Z,6.90
2017-12-31T10:01:46.953Z,6.55
2017-12-31T10:04:21.401Z,5.25
2017-12-31T10:06:55.899Z,6.78
2017-12-31T10:09:30.546Z,5.45
2017-12-31T10:12:05.059Z,7.60
2017-12-31T10:14:39.456Z,6.12
2017-12-31T10:17:13.839Z,5.40
2017-12-31T10:19:48.347Z,6.72
2017-12-31T10:22:22.892Z,6.45
2017-12-31T10:24:58.163Z,6.05
2017-12-31T10:27:32.610Z,11.90
2017-12-31T10:30:07.145Z,6.60
2017-12-31T10:32:41.631Z,7.32
2017-12-31T10:35:16.063Z,5.90
2017-12-31T10:37:50.594Z,6.28
2017-12-31T10:40:24.914Z,4.93
2017-12-31T10:42:59.416Z,4.30
2017-12-31T10:45:33.774Z,5.90
2017-12-31T10:48:08.219Z,5.80
2017-12-31T10:50:42.691Z,4.37
2017-12-31T10:53:17.200Z,4.50
2017-12-31T10:55:52.456Z,5.55
2017-12-31T10:58:26.890Z,5.90
2017-12-31T11:01:02.082Z,6.55
2017-12-31T11:03:36.394Z,4.53
2017-12-31T11:06:10.778Z,4.43
2017-12-31T11:08:45.259Z,5.07
2017-12-31T11:11:19.714Z,6.30
2017-12-31T11:13:54.099Z,4.65
2017-12-31T11:16:28.561Z,8.13
2017-12-31T11:19:03.833Z,5.18
2017-12-31T11:21:38.405Z,4.80
2017-12-31T11:24:12.817Z,3.87
2017-12-31T11:26:47.324Z,4.40
2017-12-31T11:29:21.874Z,3.60
2017-12-31T11:31:56.366Z,5.47
2017-12-31T11:34:30.719Z,4.10
2017-12-31T11:37:05.283Z,3.08
2017-12-31T11:39:39.727Z,9.10
2017-12-31T11:42:14.179Z,5.55
2017-12-31T11:44:48.562Z,12.15
2017-12-31T11:47:23.052Z,4.85
2017-12-31T11:49:57.500Z,11.90
2017-12-31T11:52:31.898Z,9.82
2017-12-31T11:55:06.421Z,4.53
2017-12-31T11:57:40.855Z,4.32
2017-12-31T12:00:15.970Z,6.18
2017-12-31T12:02:50.396Z,6.32
2017-12-31T12:05:24.790Z,8.15
2017-12-31T12:07:59.334Z,7.50
2017-12-31T12:10:33.774Z,6.43
2017-12-31T12:13:08.260Z,6.90
2017-12-31T12:15:42.776Z,5.62
2017-12-31T12:18:17.254Z,3.70
2017-12-31T12:20:51.631Z,6.12
2017-12-31T12:23:26.055Z,5.05
2017-12-31T12:26:01.318Z,5.18
2017-12-31T12:28:35.721Z,3.97
2017-12-31T12:31:10.240Z,4.03
2017-12-31T12:33:44.729Z,4.47
2017-12-31T12:36:19.295Z,2.05
2017-12-31T12:38:53.767Z,5.28
2017-12-31T12:41:29.054Z,4.82
2017-12-31T12:44:03.542Z,4.05
2017-12-31T12:46:38.098Z,6.05
2017-12-31T12:49:12.583Z,6.20
2017-12-31T12:51:46.905Z,6.22
2017-12-31T12:54:21.351Z,4.22
2017-12-31T12:56:55.817Z,4.35
2017-12-31T12:59:31.634Z,4.00
2017-12-31T13:02:06.187Z,5.60
2017-12-31T13:04:40.560Z,3.72
2017-12-31T13:07:15.089Z,5.62
2017-12-31T13:09:49.563Z,3.97
2017-12-31T13:12:24.049Z,1.90
2017-12-31T13:14:58.414Z,3.87
2017-12-31T13:17:32.890Z,2.20
2017-12-31T13:20:07.406Z,5.37
2017-12-31T13:22:41.803Z,4.32
2017-12-31T13:25:16.332Z,2.28
2017-12-31T13:27:51.601Z,3.50
2017-12-31T13:30:26.121Z,4.20
2017-12-31T13:33:00.585Z,3.62
2017-12-31T13:35:34.909Z,4.75
2017-12-31T13:38:09.229Z,3.00
2017-12-31T13:40:43.800Z,3.45
2017-12-31T13:43:18.293Z,4.05
2017-12-31T13:45:53.643Z,5.00
2017-12-31T13:48:28.118Z,3.58
2017-12-31T13:51:02.459Z,2.72
2017-12-31T13:53:36.783Z,3.22
2017-12-31T13:56:11.161Z,6.87
2017-12-31T13:58:45.590Z,3.12
2017-12-31T14:01:19.965Z,4.15
2017-12-31T14:03:54.598Z,3.65
2017-12-31T14:06:29.017Z,3.22
2017-12-31T14:09:03.562Z,4.00
2017-12-31T14:11:38.033Z,4.82
2017-12-31T14:14:13.350Z,2.83
2017-12-31T14:16:47.874Z,6.12
2017-12-31T14:19:22.417Z,3.65
2017-12-31T14:21:56.831Z,3.90
2017-12-31T14:24:31.389Z,4.72
2017-12-31T14:27:05.922Z,3.33
2017-12-31T14:29:40.431Z,2.58
2017-12-31T14:32:14.829Z,4.00
2017-12-31T14:34:49.288Z,1.85
2017-12-31T14:37:23.775Z,2.97
2017-12-31T14:39:58.320Z,2.05
2017-12-31T14:42:32.811Z,2.05
2017-12-31T14:45:07.493Z,3.28
2017-12-31T14:47:41.867Z,2.75
2017-12-31T14:50:16.253Z,3.55
2017-12-31T14:52:50.721Z,2.28
2017-12-31T14:55:25.238Z,2.70
2017-12-31T14:57:59.765Z,4.22
2017-12-31T15:00:34.194Z,3.45
2017-12-31T15:03:08.584Z,5.07
2017-12-31T15:05:43.812Z,5.05
2017-12-31T15:08:18.247Z,4.20
2017-12-31T15:10:52.776Z,2.95
2017-12-31T15:13:27.283Z,2.35
2017-12-31T15:16:01.641Z,4.50
2017-12-31T15:18:36.134Z,4.55
2017-12-31T15:21:10.647Z,6.03
2017-12-31T15:23:45.161Z,2.80
2017-12-31T15:26:19.515Z,3.12
2017-12-31T15:28:53.990Z,2.35
2017-12-31T15:31:28.562Z,2.15
2017-12-31T15:34:03.064Z,3.25
2017-12-31T15:36:37.565Z,4.40
2017-12-31T15:39:12.707Z,5.95
2017-12-31T15:41:47.145Z,3.25
2017-12-31T15:44:21.685Z,2.00
2017-12-31T15:46:56.163Z,2.33
2017-12-31T15:49:30.537Z,0.90
2017-12-31T15:52:04.906Z,1.40
2017-12-31T15:54:39.428Z,2.15
2017-12-31T15:57:14.664Z,1.80
2017-12-31T15:59:49.168Z,4.30
2017-12-31T16:02:23.610Z,1.80
2017-12-31T16:04:58.986Z,11.20
2017-12-31T16:07:33.395Z,15.85
2017-12-31T16:10:07.903Z,8.15
2017-12-31T16:12:42.274Z,18.17
2017-12-31T16:15:16.731Z,5.75
2017-12-31T16:17:51.263Z,6.78
2017-12-31T16:20:25.771Z,3.95
2017-12-31T16:23:00.986Z,5.22
2017-12-31T16:25:35.408Z,2.95
2017-12-31T16:28:10.561Z,6.60
2017-12-31T16:30:45.101Z,6.45
2017-12-31T16:33:19.418Z,5.65
2017-12-31T16:35:53.931Z,4.68
2017-12-31T16:38:28.415Z,5.20
2017-12-31T16:41:02.904Z,4.03
2017-12-31T16:43:37.379Z,5.40
2017-12-31T16:46:11.867Z,5.70
2017-12-31T16:48:46.236Z,6.60
2017-12-31T16:51:20.627Z,4.28
2017-12-31T16:53:55.177Z,6.25
2017-12-31T16:56:29.715Z,5.60
2017-12-31T16:59:05.032Z,4.40
2017-12-31T17:01:39.541Z,5.70
2017-12-31T17:04:14.023Z,8.25
2017-12-31T17:06:48.578Z,8.20
2017-12-31T17:09:23.000Z,20.95
2017-12-31T17:11:57.411Z,31.92
2017-12-31T17:14:31.795Z,11.55
2017-12-31T17:17:06.225Z,16.25
2017-12-31T17:19:40.687Z,15.88
2017-12-31T17:22:15.294Z,13.62
2017-12-31T17:24:49.855Z,15.48
2017-12-31T17:27:24.392Z,15.45
2017-12-31T17:29:58.887Z,21.55
2017-12-31T17:32:33.296Z,13.40
2017-12-31T17:35:07.827Z,10.02
2017-12-31T17:37:42.362Z,28.95
2017-12-31T17:40:17.877Z,28.35
2017-12-31T17:42:52.332Z,30.80
2017-12-31T17:45:26.855Z,20.25
2017-12-31T17:48:01.378Z,13.00
2017-12-31T17:50:35.721Z,13.27
2017-12-31T17:53:10.147Z,16.62
2017-12-31T17:55:44.692Z,18.45
2017-12-31T17:58:19.848Z,19.98
2017-12-31T18:00:54.383Z,10.63
2017-12-31T18:03:28.903Z,11.82
2017-12-31T18:06:03.403Z,10.68
2017-12-31T18:08:37.884Z,22.05
2017-12-31T18:11:12.382Z,17.02
2017-12-31T18:13:46.873Z,19.15
2017-12-31T18:16:21.387Z,23.77
2017-12-31T18:18:56.054Z,9.20
2017-12-31T18:21:30.450Z,5.22
2017-12-31T18:24:05.780Z,7.55
2017-12-31T18:26:40.192Z,7.87
2017-12-31T18:29:14.635Z,12.43
2017-12-31T18:31:48.979Z,9.50
2017-12-31T18:34:23.459Z,8.75
2017-12-31T18:36:58.705Z,7.97
2017-12-31T18:39:33.159Z,8.30
2017-12-31T18:42:07.637Z,15.52
2017-12-31T18:44:42.141Z,42.47
2017-12-31T18:47:16.592Z,74.97
2017-12-31T18:49:51.879Z,66.75
2017-12-31T18:52:27.194Z,42.88
2017-12-31T18:55:01.571Z,10.50
2017-12-31T18:57:36.148Z,11.85
2017-12-31T19:00:10.651Z,14.70
2017-12-31T19:02:45.161Z,11.50
2017-12-31T19:05:19.589Z,10.18
2017-12-31T19:07:54.072Z,12.85
2017-12-31T19:10:28.544Z,7.40
2017-12-31T19:13:03.852Z,9.02
2017-12-31T19:15:38.395Z,19.05
2017-12-31T19:18:12.932Z,9.07
2017-12-31T19:20:47.462Z,20.77
2017-12-31T19:23:21.997Z,18.90
2017-12-31T19:25:56.576Z,10.63
2017-12-31T19:28:31.108Z,9.10
2017-12-31T19:31:05.551Z,15.48
2017-12-31T19:33:40.725Z,8.85
2017-12-31T19:36:15.237Z,10.88
2017-12-31T19:38:51.328Z,10.20
2017-12-31T19:41:26.552Z,21.37
2017-12-31T19:44:00.919Z,18.85
2017-12-31T19:46:35.274Z,18.80
2017-12-31T19:49:09.608Z,12.48
2017-12-31T19:51:44.048Z,19.58
2017-12-31T19:54:18.571Z,21.75
2017-12-31T19:56:53.081Z,22.95
2017-12-31T19:59:27.497Z,17.50
2017-12-31T20:02:02.018Z,26.27
2017-12-31T20:04:37.373Z,18.62
2017-12-31T20:07:11.836Z,19.12
2017-12-31T20:09:46.407Z,20.67
2017-12-31T20:12:20.948Z,16.37
2017-12-31T20:14:56.294Z,19.52
2017-12-31T20:17:30.824Z,20.25
2017-12-31T20:20:05.941Z,19.90
2017-12-31T20:22:41.091Z,19.85
2017-12-31T20:25:16.594Z,23.80
2017-12-31T20:27:51.760Z,24.73
2017-12-31T20:30:26.151Z,21.10
2017-12-31T20:33:00.601Z,22.05
2017-12-31T20:35:35.798Z,22.20
2017-12-31T20:38:10.109Z,37.30
2017-12-31T20:40:45.370Z,32.70
2017-12-31T20:43:19.786Z,31.85
2017-12-31T20:45:54.229Z,22.60
2017-12-31T20:48:28.595Z,47.92
2017-12-31T20:51:03.150Z,22.62
2017-12-31T20:53:37.711Z,51.17
2017-12-31T20:56:12.218Z,26.52
2017-12-31T20:58:46.587Z,30.27
2017-12-31T21:01:20.913Z,23.17
2017-12-31T21:03:56.174Z,39.00
2017-12-31T21:06:30.592Z,216.30
2017-12-31T21:09:04.991Z,28.02
2017-12-31T21:11:39.458Z,21.25
2017-12-31T21:14:13.956Z,21.12
2017-12-31T21:16:48.485Z,21.92
2017-12-31T21:19:23.175Z,36.40
2017-12-31T21:21:58.414Z,21.60
2017-12-31T21:24:32.842Z,17.90
2017-12-31T21:27:07.390Z,20.70
2017-12-31T21:29:41.786Z,24.90
2017-12-31T21:32:16.273Z,36.55
2017-12-31T21:34:50.689Z,32.35
2017-12-31T21:37:25.156Z,17.60
2017-12-31T21:39:59.691Z,15.43
2017-12-31T21:42:34.068Z,13.98
2017-12-31T21:45:08.532Z,14.95
2017-12-31T21:47:43.070Z,18.20
2017-12-31T21:50:17.534Z,14.82
2017-12-31T21:52:51.960Z,15.43
2017-12-31T21:55:26.444Z,23.35
2017-12-31T21:58:01.701Z,34.65
2017-12-31T22:00:36.168Z,29.10
2017-12-31T22:03:11.392Z,19.10
2017-12-31T22:05:45.800Z,27.02
2017-12-31T22:08:20.121Z,20.70
2017-12-31T22:10:54.491Z,22.40
2017-12-31T22:13:28.977Z,17.12
2017-12-31T22:16:03.561Z,19.80
2017-12-31T22:18:38.102Z,15.68
2017-12-31T22:21:12.519Z,17.52
2017-12-31T22:23:47.040Z,17.80
2017-12-31T22:26:21.585Z,15.85
2017-12-31T22:28:56.033Z,22.73
2017-12-31T22:31:30.578Z,26.55
2017-12-31T22:34:05.647Z,16.60
2017-12-31T22:36:40.807Z,13.55
2017-12-31T22:39:16.017Z,20.58
2017-12-31T22:41:50.601Z,23.08
2017-12-31T22:44:25.088Z,13.00
2017-12-31T22:46:59.583Z,15.00
2017-12-31T22:49:33.993Z,32.90
2017-12-31T22:52:08.456Z,18.65
2017-12-31T22:54:43.042Z,29.77
2017-12-31T22:57:18.242Z,21.23
2017-12-31T22:59:52.615Z,28.30
2017-12-31T23:02:27.012Z,25.05
2017-12-31T23:05:01.561Z,42.58
2017-12-31T23:07:36.168Z,167.45
2017-12-31T23:10:10.537Z,578.67
2017-12-31T23:12:45.153Z,334.17
2017-12-31T23:15:19.634Z,285.75
2017-12-31T23:17:54.061Z,285.67
2017-12-31T23:20:28.456Z,265.62
2017-12-31T23:23:02.941Z,120.32
2017-12-31T23:25:37.450Z,109.63
2017-12-31T23:28:12.767Z,154.45
2017-12-31T23:30:47.218Z,78.05
2017-12-31T23:33:21.589Z,104.50
2017-12-31T23:35:56.064Z,72.85
2017-12-31T23:38:30.570Z,109.85
2017-12-31T23:41:05.086Z,60.70
2017-12-31T23:43:39.741Z,50.45
2017-12-31T23:46:14.923Z,77.25
2017-12-31T23:48:49.383Z,43.95
2017-12-31T23:51:23.926Z,41.90
2017-12-31T23:53:58.373Z,42.33
2017-12-31T23:56:32.777Z,44.83
2017-12-31T23:59:08.004Z,34.28
